首页
METAR-TAF:

METAR-TAF

机场 :

班达拉奈克国际机场

可倫坡, 斯里兰卡

纬度: 07-10N, 经度: 079-53E, 海拔: 8米

当前天气观测

该预报发布于1小时和7分钟前的03:10 UTC
风速8节,风向西转西南,在西南西北之间变化
温度 30°C
湿度 75%
气压 1007 hPa
能见度10公里或以上
少量云层高于1700英尺
少量云层高于1900英尺, 塔状积云.

METAR: VCBI 220310Z 25008KT 230V310 9999 FEW017 FEW019TCU 30/25 Q1007 NOSIG RMK TCU SW

时间: 09:47 (04:17 UTC)

预报

该预报发布于5小时和17分钟前的23:00 UTC
预报有效从22日的 00点(UTC)到 23日的 06点(UTC)
风速8节,风向西南
能见度10公里或以上
少量云层高于1700英尺
几率 30% :
短暂存在
从 22日的 08点(UTC)到 22日的 12点(UTC)
能見度: 6000
少量云层高于1200英尺
多云层高于1600英尺
阵雨,

TAF: VCBI 212300Z 2200/2306 23008KT 9999 FEW017 TX31/2207Z TN25/2300Z PROB30 TEMPO 2208/2212 6000 SHRA FEW012 BKN016

超过4000个机场的气象观测和天气预报(METAR&TAF报告)。

可查询的气象台以黄色和红色小点在地图上表示。

将鼠标移到小点上方,可查看气象台名称。

然后点击查看天气观测和预报。

如需切换地图:点击带黑十字的绿色按钮放大地图;点击带横线的绿色按钮缩小地图;或者点击绿色箭头查看邻近地区的地图。


METAR-TAF: